Time;durP1;ratioP1;P1;durP2;ratioP2;P2;SDS_P1;SDS_P2;PMS_P1;PMS_P2;Temp;Humidity;BMP_temperature;BMP_pressure;BME280_temperature;BME280_humidity;BME280_pressure;Samples;Min_cycle;Max_cycle;Signal;HPM_P1;HPM_P2
2021/12/11 00:00:19;;;;;;;46.88;19.27;;;;;;;0.27;100.00;97708.66;4452062;32;20104;-71
2021/12/11 00:03:06;;;;;;;43.03;18.12;;;;;;;0.23;100.00;97725.22;4451915;32;20101;-71
2021/12/11 00:05:36;;;;;;;44.53;16.75;;;;;;;0.24;100.00;97726.91;4455816;31;20167;-71
2021/12/11 00:08:08;;;;;;;45.20;18.52;;;;;;;0.20;100.00;97730.59;4501285;31;20700;-71
2021/12/11 00:10:40;;;;;;;48.92;18.87;;;;;;;0.15;100.00;97731.72;4501413;31;20083;-71
2021/12/11 00:13:13;;;;;;;43.03;17.65;;;;;;;0.19;100.00;97739.25;4501141;31;20487;-71
2021/12/11 00:15:43;;;;;;;45.05;18.35;;;;;;;0.20;100.00;97743.47;4501226;31;20080;-71
2021/12/11 00:18:16;;;;;;;52.92;18.05;;;;;;;0.18;100.00;97740.97;4501342;31;20103;-71
2021/12/11 00:20:54;;;;;;;55.47;19.90;;;;;;;0.26;100.00;97748.22;4501212;31;20083;-71
2021/12/11 00:23:31;;;;;;;49.80;18.25;;;;;;;0.20;100.00;97756.34;4487726;31;20138;-71
2021/12/11 00:25:58;;;;;;;50.17;20.12;;;;;;;0.26;100.00;97768.81;4485389;31;20471;-71
2021/12/11 00:28:26;;;;;;;53.33;20.62;;;;;;;0.20;100.00;97774.38;4489782;31;20104;-71
2021/12/11 00:30:55;;;;;;;47.58;18.83;;;;;;;0.17;100.00;97765.91;4501076;31;20774;-71
2021/12/11 00:33:33;;;;;;;45.47;19.42;;;;;;;0.12;100.00;97773.13;4501003;31;20466;-71
2021/12/11 00:36:09;;;;;;;43.87;16.37;;;;;;;0.16;100.00;97790.00;4501040;31;20072;-71
2021/12/11 00:38:38;;;;;;;49.85;18.35;;;;;;;0.22;100.00;97788.00;4501172;31;20084;-71
2021/12/11 00:41:09;;;;;;;48.58;19.80;;;;;;;0.22;100.00;97791.37;4501293;31;20096;-71
2021/12/11 00:43:40;;;;;;;46.95;17.85;;;;;;;0.08;100.00;97797.41;4500982;31;20076;-71
2021/12/11 00:46:11;;;;;;;46.08;19.62;;;;;;;0.16;100.00;97799.50;4501124;31;20084;-71
2021/12/11 00:48:39;;;;;;;46.40;17.50;;;;;;;0.09;100.00;97803.38;4500916;31;20182;-71
2021/12/11 00:51:27;;;;;;;44.88;17.70;;;;;;;0.11;100.00;97802.38;4501365;31;20110;-71
2021/12/11 00:53:57;;;;;;;47.05;17.70;;;;;;;0.03;100.00;97808.91;4500867;31;20084;-71
2021/12/11 00:56:26;;;;;;;41.47;16.37;;;;;;;0.06;100.00;97824.16;4501041;31;20136;-71
2021/12/11 00:58:55;;;;;;;43.03;16.85;;;;;;;0.17;100.00;97827.72;4499547;31;20488;-71
2021/12/11 01:01:29;;;;;;;44.28;18.52;;;;;;;0.17;100.00;97826.91;4501007;31;20479;-71
2021/12/11 01:03:57;;;;;;;40.72;17.77;;;;;;;0.15;100.00;97824.44;4501005;31;20143;-71
2021/12/11 01:06:30;;;;;;;46.72;17.50;;;;;;;0.18;100.00;97813.09;4499626;31;20541;-71
2021/12/11 01:09:18;;;;;;;43.55;18.40;;;;;;;0.27;100.00;97827.16;4500977;31;20104;-71
2021/12/11 01:12:45;;;;;;;49.67;18.70;;;;;;;0.13;100.00;97826.25;4500950;31;20122;-71
2021/12/11 01:15:43;;;;;;;47.60;17.48;;;;;;;0.02;100.00;97831.25;4451374;32;20109;-71
2021/12/11 01:23:46;;;;;;;46.00;18.23;;;;;;;0.14;100.00;97832.25;4438066;32;20199;-71
2021/12/11 01:26:19;;;;;;;44.58;16.98;;;;;;;0.19;100.00;97839.69;4435764;32;20186;-71
2021/12/11 01:28:48;;;;;;;47.62;19.08;;;;;;;0.22;100.00;97840.31;4435910;32;20112;-71
2021/12/11 01:31:18;;;;;;;41.85;17.23;;;;;;;0.35;100.00;97842.97;4435798;32;20175;-71
2021/12/11 01:33:45;;;;;;;48.28;18.25;;;;;;;0.31;100.00;97829.44;4435667;32;20133;-71
2021/12/11 01:36:12;;;;;;;37.00;16.67;;;;;;;0.31;100.00;97836.34;4435603;32;20428;-71
2021/12/11 01:38:40;;;;;;;47.45;16.73;;;;;;;0.35;100.00;97837.81;4435682;32;20112;-72
2021/12/11 01:41:16;;;;;;;42.72;16.98;;;;;;;0.28;100.00;97841.69;4435529;32;20097;-71
2021/12/11 01:43:46;;;;;;;46.88;18.42;;;;;;;0.25;100.00;97855.59;4435754;32;20444;-71
2021/12/11 01:46:15;;;;;;;40.85;16.55;;;;;;;0.35;100.00;97866.16;4422689;32;20566;-71
2021/12/11 01:48:45;;;;;;;41.10;17.00;;;;;;;0.31;100.00;97862.13;4435782;32;20113;-71
2021/12/11 01:51:40;;;;;;;52.83;18.08;;;;;;;0.47;100.00;97867.13;4440545;32;20192;-71
2021/12/11 01:54:18;;;;;;;50.60;20.02;;;;;;;0.54;100.00;97865.81;4484565;31;20077;-71
2021/12/11 01:56:50;;;;;;;43.17;16.85;;;;;;;0.36;100.00;97862.66;4484523;31;20148;-71
2021/12/11 01:59:23;;;;;;;40.78;16.33;;;;;;;0.32;100.00;97856.88;4483471;32;20107;-71
2021/12/11 02:01:57;;;;;;;41.72;15.68;;;;;;;0.36;100.00;97847.19;4484510;32;20112;-71
2021/12/11 02:04:26;;;;;;;43.03;18.62;;;;;;;0.41;100.00;97850.31;4484327;31;20080;-71
2021/12/11 02:06:55;;;;;;;47.30;17.70;;;;;;;0.35;100.00;97845.56;4484437;31;20097;-71
2021/12/11 02:09:29;;;;;;;47.95;17.75;;;;;;;0.45;100.00;97844.03;4484482;31;20092;-71
2021/12/11 02:12:12;;;;;;;47.08;17.42;;;;;;;0.52;100.00;97840.16;4484155;31;20126;-71
2021/12/11 02:14:44;;;;;;;50.72;17.48;;;;;;;0.50;100.00;97834.28;4484366;31;20088;-71
2021/12/11 02:17:17;;;;;;;46.72;18.33;;;;;;;0.44;100.00;97826.94;4484275;32;20499;-71
2021/12/11 02:19:47;;;;;;;48.72;17.92;;;;;;;0.35;100.00;97825.75;4484364;31;20080;-71
2021/12/11 02:22:19;;;;;;;55.22;18.12;;;;;;;0.16;100.00;97830.41;4484192;31;20108;-71
2021/12/11 02:24:52;;;;;;;52.97;16.30;;;;;;;0.13;100.00;97834.00;4484017;31;20115;-71
2021/12/11 02:27:42;;;;;;;48.90;17.60;;;;;;;0.23;100.00;97839.41;4484145;32;20089;-71
2021/12/11 02:30:24;;;;;;;45.40;17.02;;;;;;;0.16;100.00;97826.06;4484085;31;20164;-71
2021/12/11 02:33:10;;;;;;;49.67;17.73;;;;;;;0.19;100.00;97830.22;4485639;31;20087;-71
2021/12/11 02:35:43;;;;;;;53.13;17.95;;;;;;;0.22;100.00;97834.34;4486049;31;20108;-71
2021/12/11 02:38:15;;;;;;;40.90;15.23;;;;;;;0.22;100.00;97840.31;4486055;31;20438;-71
2021/12/11 02:40:54;;;;;;;40.22;15.07;;;;;;;0.30;100.00;97835.53;4486294;31;20077;-71
2021/12/11 02:43:30;;;;;;;47.28;17.80;;;;;;;0.14;100.00;97830.50;4486057;32;20097;-71
2021/12/11 02:46:03;;;;;;;41.00;16.33;;;;;;;0.17;100.00;97827.72;4486288;31;20088;-71
2021/12/11 02:48:38;;;;;;;46.13;16.30;;;;;;;0.21;100.00;97830.13;4486141;31;20126;-71
2021/12/11 02:51:30;;;;;;;51.92;17.52;;;;;;;0.24;100.00;97828.16;4486016;31;20092;-71
2021/12/11 02:54:03;;;;;;;47.65;15.23;;;;;;;0.15;100.00;97824.44;4485747;32;20136;-71
2021/12/11 02:56:43;;;;;;;54.00;17.27;;;;;;;0.19;100.00;97829.41;4486108;31;21199;-71
2021/12/11 02:59:15;;;;;;;44.72;15.45;;;;;;;0.17;100.00;97824.34;4486098;31;20100;-71
2021/12/11 03:01:49;;;;;;;43.30;15.63;;;;;;;0.22;100.00;97811.19;4486284;31;20497;-71
2021/12/11 03:05:05;;;;;;;41.20;15.18;;;;;;;0.13;100.00;97810.81;4485909;31;20084;-71
2021/12/11 03:07:16;;;;;;;41.00;15.65;;;;;;;0.22;100.00;97808.59;4485139;32;20156;-71
2021/12/11 03:09:48;;;;;;;46.03;15.77;;;;;;;0.12;100.00;97813.47;4485830;32;20104;-71
2021/12/11 03:12:17;;;;;;;38.85;15.40;;;;;;;0.16;100.00;97818.34;4485848;31;20180;-71
2021/12/11 03:14:46;;;;;;;44.13;15.80;;;;;;;0.15;100.00;97819.28;4485962;32;20152;-71
2021/12/11 03:17:15;;;;;;;46.95;16.50;;;;;;;0.16;100.00;97820.91;4485771;31;20104;-71
2021/12/11 03:19:44;;;;;;;44.72;14.65;;;;;;;0.14;100.00;97834.84;4485815;31;20111;-71
2021/12/11 03:22:19;;;;;;;43.67;14.75;;;;;;;0.24;100.00;97837.66;4491171;31;20147;-71
2021/12/11 03:24:47;;;;;;;34.08;15.15;;;;;;;0.27;100.00;97858.06;4501567;31;20601;-71
2021/12/11 03:27:15;;;;;;;42.05;16.10;;;;;;;0.40;100.00;97863.28;4501496;31;20163;-71
2021/12/11 03:29:42;;;;;;;40.75;16.10;;;;;;;0.35;100.00;97861.00;4488514;31;20088;-71
2021/12/11 03:32:11;;;;;;;40.55;15.23;;;;;;;0.21;100.00;97869.56;4486096;31;20118;-71
2021/12/11 03:34:40;;;;;;;44.42;16.60;;;;;;;0.28;100.00;97875.19;4485620;32;20473;-71
2021/12/11 03:37:09;;;;;;;43.40;16.58;;;;;;;0.22;100.00;97885.88;4485773;31;20089;-71
2021/12/11 03:39:39;;;;;;;39.88;15.50;;;;;;;0.29;100.00;97892.31;4485658;31;20127;-71
2021/12/11 03:42:12;;;;;;;43.05;16.05;;;;;;;0.28;100.00;97891.47;4485544;31;20154;-71
2021/12/11 03:44:41;;;;;;;46.92;15.90;;;;;;;0.40;100.00;97895.03;4484456;32;20093;-71
2021/12/11 03:47:12;;;;;;;42.10;14.75;;;;;;;0.41;100.00;97899.28;4485765;31;20123;-71
2021/12/11 03:49:40;;;;;;;38.75;14.77;;;;;;;0.33;100.00;97901.47;4485584;32;20155;-71
2021/12/11 03:52:09;;;;;;;33.63;14.00;;;;;;;0.33;100.00;97888.59;4485686;32;20386;-71
2021/12/11 03:54:41;;;;;;;31.77;13.98;;;;;;;0.32;100.00;97897.28;4485496;32;20154;-71
2021/12/11 03:57:11;;;;;;;40.53;13.57;;;;;;;0.39;100.00;97893.38;4485718;31;20106;-71
2021/12/11 03:59:39;;;;;;;32.72;12.95;;;;;;;0.36;100.00;97888.41;4485465;31;20080;-71
2021/12/11 04:02:10;;;;;;;36.85;13.57;;;;;;;0.47;100.00;97886.00;4485709;31;20537;-71
2021/12/11 04:04:42;;;;;;;29.63;12.32;;;;;;;0.40;100.00;97877.00;4485486;31;20088;-71
2021/12/11 04:07:13;;;;;;;33.28;13.43;;;;;;;0.41;100.00;97888.97;4485595;31;20114;-71
2021/12/11 04:09:41;;;;;;;29.05;11.75;;;;;;;0.35;100.00;97887.59;4485831;32;20076;-71
2021/12/11 04:12:08;;;;;;;31.50;11.93;;;;;;;0.36;100.00;97878.09;4484232;32;20103;-71
2021/12/11 04:14:38;;;;;;;34.60;13.23;;;;;;;0.29;100.00;97882.00;4485438;32;20144;-71
2021/12/11 04:17:08;;;;;;;33.50;12.95;;;;;;;0.29;100.00;97882.00;4485497;31;20351;-71
2021/12/11 04:19:35;;;;;;;34.88;13.98;;;;;;;0.31;100.00;97886.12;4485689;31;20092;-71
2021/12/11 04:22:04;;;;;;;34.90;12.98;;;;;;;0.34;100.00;97887.69;4489836;31;20084;-71
2021/12/11 04:24:33;;;;;;;32.15;13.48;;;;;;;0.29;100.00;97892.31;4501117;31;20096;-71
2021/12/11 04:27:02;;;;;;;36.03;13.80;;;;;;;0.28;100.00;97900.94;4501203;31;20099;-71
2021/12/11 04:29:29;;;;;;;43.20;14.95;;;;;;;0.35;100.00;97904.81;4489658;31;20521;-71
2021/12/11 04:32:01;;;;;;;34.55;13.13;;;;;;;0.43;100.00;97900.00;4485399;31;20105;-71
2021/12/11 04:34:30;;;;;;;35.10;13.73;;;;;;;0.36;100.00;97901.28;4485344;32;20200;-71
2021/12/11 04:37:10;;;;;;;33.95;12.65;;;;;;;0.26;100.00;97902.78;4485278;31;20114;-71
2021/12/11 04:39:38;;;;;;;28.33;12.35;;;;;;;0.20;100.00;97911.72;4485214;31;20152;-71
2021/12/11 04:42:18;;;;;;;34.53;12.98;;;;;;;0.29;100.00;97912.91;4485246;31;20457;-71
2021/12/11 04:44:47;;;;;;;30.62;12.37;;;;;;;0.30;100.00;97910.25;4485300;32;20084;-71
2021/12/11 04:47:41;;;;;;;28.58;12.07;;;;;;;0.27;100.00;97912.16;4485088;32;20126;-71
2021/12/11 04:50:25;;;;;;;31.02;12.52;;;;;;;0.27;100.00;97909.59;4485178;31;20101;-71
2021/12/11 04:52:55;;;;;;;31.27;11.87;;;;;;;0.23;100.00;97908.97;4485107;32;20612;-71
2021/12/11 04:56:29;;;;;;;30.90;11.85;;;;;;;0.28;100.00;97918.97;4484472;31;20145;-71
2021/12/11 05:09:18;;;;;;;28.87;11.88;;;;;;;0.22;100.00;97933.06;4449440;32;20248;-71
2021/12/11 05:12:06;;;;;;;27.30;10.20;;;;;;;0.08;100.00;97931.31;4449378;32;20166;-71
2021/12/11 05:14:34;;;;;;;24.23;10.45;;;;;;;0.32;100.00;97938.50;4453848;32;20120;-71
2021/12/11 05:17:02;;;;;;;27.85;10.70;;;;;;;0.32;100.00;97941.06;4456093;32;20132;-71
2021/12/11 05:19:29;;;;;;;22.30;9.43;;;;;;;0.14;100.00;97941.25;4466864;32;20113;-71
2021/12/11 05:21:57;;;;;;;23.15;10.30;;;;;;;0.09;100.00;97943.28;4457756;32;20123;-72
2021/12/11 05:24:24;;;;;;;23.92;9.23;;;;;;;0.14;100.00;97943.81;4457886;32;20135;-72
2021/12/11 05:26:51;;;;;;;27.27;10.23;;;;;;;0.11;100.00;97944.00;4466528;32;20108;-72
2021/12/11 05:29:19;;;;;;;21.95;9.85;;;;;;;0.00;100.00;97943.84;4466325;32;20163;-71
2021/12/11 05:31:46;;;;;;;22.37;8.85;;;;;;;0.07;100.00;97939.94;4466683;32;20625;-72
2021/12/11 05:34:14;;;;;;;20.45;8.00;;;;;;;0.04;100.00;97945.28;4466773;32;20109;-72
2021/12/11 05:36:41;;;;;;;20.77;7.20;;;;;;;0.17;100.00;97947.97;4466557;32;20112;-72
2021/12/11 05:39:13;;;;;;;20.17;7.53;;;;;;;0.17;100.00;97953.13;4482159;32;20446;-71
2021/12/11 05:41:42;;;;;;;18.20;7.28;;;;;;;-0.08;100.00;97956.31;4484601;31;20381;-71
2021/12/11 05:44:11;;;;;;;20.05;8.05;;;;;;;-0.05;100.00;97950.97;4484666;31;20446;-71
2021/12/11 05:46:38;;;;;;;19.37;7.40;;;;;;;-0.08;100.00;97951.97;4484627;31;20136;-72
2021/12/11 05:49:08;;;;;;;17.58;7.45;;;;;;;-0.06;100.00;97949.31;4484566;31;20450;-71
2021/12/11 05:51:39;;;;;;;18.05;7.90;;;;;;;0.03;100.00;97953.94;4484552;31;20497;-72
2021/12/11 05:54:12;;;;;;;21.08;8.07;;;;;;;-0.07;100.00;97965.69;4484201;32;20135;-72
2021/12/11 05:56:41;;;;;;;21.58;8.05;;;;;;;-0.17;100.00;97962.81;4484705;31;20115;-72
2021/12/11 05:59:11;;;;;;;16.48;7.53;;;;;;;-0.16;100.00;97973.97;4484749;32;20108;-71
2021/12/11 06:01:40;;;;;;;22.60;8.93;;;;;;;-0.15;100.00;97975.59;4484396;31;20405;-71
2021/12/11 06:04:13;;;;;;;21.23;7.90;;;;;;;-0.12;100.00;97990.88;4484439;31;20153;-72
2021/12/11 06:06:41;;;;;;;19.67;8.20;;;;;;;-0.15;100.00;97998.78;4485992;31;20536;-72
2021/12/11 06:09:12;;;;;;;19.37;7.68;;;;;;;-0.11;100.00;98003.66;4486353;31;20101;-72
2021/12/11 06:11:40;;;;;;;19.95;9.18;;;;;;;-0.02;100.00;98021.13;4486222;31;20084;-72
2021/12/11 06:14:08;;;;;;;21.25;8.48;;;;;;;0.00;100.00;98028.81;4491334;31;20088;-72
2021/12/11 06:16:35;;;;;;;17.52;7.75;;;;;;;0.09;100.00;98042.87;4501878;31;20796;-72
2021/12/11 06:19:05;;;;;;;17.00;7.40;;;;;;;0.10;100.00;98053.06;4501339;31;20116;-72
2021/12/11 06:21:35;;;;;;;17.55;7.37;;;;;;;0.09;100.00;98059.16;4501677;31;20216;-72
2021/12/11 06:24:03;;;;;;;16.77;6.78;;;;;;;0.19;100.00;98062.00;4501811;31;20127;-72
2021/12/11 06:26:31;;;;;;;22.45;7.93;;;;;;;0.16;100.00;98057.87;4501748;31;20099;-72
2021/12/11 06:28:59;;;;;;;16.33;7.78;;;;;;;0.00;100.00;98059.69;4501231;31;20122;-72
2021/12/11 06:31:26;;;;;;;22.23;8.00;;;;;;;-0.01;100.00;98063.19;4501818;31;20457;-72
2021/12/11 06:33:54;;;;;;;19.77;8.85;;;;;;;0.03;100.00;98074.97;4501400;31;20528;-72
2021/12/11 06:36:26;;;;;;;20.83;9.05;;;;;;;-0.10;100.00;98079.16;4495920;31;20108;-72
2021/12/11 06:38:57;;;;;;;20.60;7.05;;;;;;;-0.08;100.00;98087.63;4501795;31;20119;-72
2021/12/11 06:41:28;;;;;;;17.77;7.53;;;;;;;-0.12;100.00;98094.69;4498631;31;20480;-72
2021/12/11 06:43:55;;;;;;;26.52;9.30;;;;;;;-0.06;100.00;98090.91;4500845;31;20107;-72
2021/12/11 06:46:23;;;;;;;21.65;8.48;;;;;;;0.02;100.00;98100.81;4485355;31;20096;-72
2021/12/11 06:48:50;;;;;;;22.77;8.63;;;;;;;-0.05;100.00;98098.56;4501568;31;20083;-71
2021/12/11 06:51:18;;;;;;;23.33;9.07;;;;;;;0.05;100.00;98101.44;4499184;31;20415;-72
2021/12/11 06:53:49;;;;;;;18.98;8.32;;;;;;;0.03;100.00;98105.88;4500997;31;20096;-72
2021/12/11 06:56:18;;;;;;;19.00;7.75;;;;;;;0.05;100.00;98116.91;4500867;31;20115;-72
2021/12/11 06:58:46;;;;;;;18.10;8.15;;;;;;;0.10;100.00;98117.47;4501566;31;20482;-71
2021/12/11 07:01:13;;;;;;;19.00;7.78;;;;;;;0.07;100.00;98129.69;4500978;31;20102;-72
2021/12/11 07:03:42;;;;;;;20.23;7.70;;;;;;;0.08;100.00;98132.19;4501672;31;20148;-72
2021/12/11 07:06:10;;;;;;;24.85;8.30;;;;;;;0.05;100.00;98134.09;4501287;31;20119;-72
2021/12/11 07:08:38;;;;;;;17.77;7.78;;;;;;;0.03;100.00;98151.38;4501386;31;20104;-72
2021/12/11 07:11:08;;;;;;;25.45;10.95;;;;;;;-0.04;100.00;98154.28;4489578;31;20100;-72
2021/12/11 07:13:35;;;;;;;23.02;8.52;;;;;;;0.03;100.00;98161.66;4489971;31;20101;-72
2021/12/11 07:16:03;;;;;;;19.20;8.20;;;;;;;0.01;100.00;98166.91;4497300;31;20095;-72
2021/12/11 07:18:31;;;;;;;19.52;8.13;;;;;;;0.07;100.00;98169.13;4493775;31;20104;-71
2021/12/11 07:20:58;;;;;;;17.10;7.65;;;;;;;0.05;100.00;98177.88;4501013;31;20122;-72
2021/12/11 07:23:26;;;;;;;19.23;7.00;;;;;;;-0.01;100.00;98187.59;4500830;31;20554;-72
2021/12/11 07:26:12;;;;;;;18.70;8.23;;;;;;;0.06;100.00;98194.97;4486801;31;20092;-73
2021/12/11 07:28:41;;;;;;;21.62;8.63;;;;;;;0.17;100.00;98208.09;4493661;31;20126;-72
2021/12/11 07:31:08;;;;;;;21.58;8.02;;;;;;;0.11;100.00;98214.41;4486451;31;20080;-72
2021/12/11 07:33:36;;;;;;;19.20;8.02;;;;;;;0.06;100.00;98200.97;4500380;31;20092;-72
2021/12/11 07:36:04;;;;;;;16.37;7.47;;;;;;;0.06;100.00;98208.69;4500482;31;20107;-72
2021/12/11 07:38:32;;;;;;;19.90;7.15;;;;;;;0.14;100.00;98216.81;4493696;31;20205;-72
2021/12/11 07:41:03;;;;;;;18.10;7.50;;;;;;;0.07;100.00;98218.06;4500895;31;20207;-72
2021/12/11 07:43:31;;;;;;;14.63;6.97;;;;;;;0.09;100.00;98225.72;4495249;31;20083;-72
2021/12/11 07:45:59;;;;;;;18.70;7.65;;;;;;;0.16;100.00;98222.69;4496960;31;20104;-72
2021/12/11 07:48:26;;;;;;;19.50;7.82;;;;;;;0.11;100.00;98222.16;4491848;31;20625;-72
2021/12/11 07:50:54;;;;;;;18.12;7.80;;;;;;;0.10;100.00;98220.47;4499946;31;20108;-72
2021/12/11 07:53:21;;;;;;;16.70;8.15;;;;;;;0.07;100.00;98215.50;4500471;31;20104;-72
2021/12/11 07:55:50;;;;;;;17.33;7.60;;;;;;;-0.07;100.00;98212.88;4500320;31;20123;-72
2021/12/11 07:58:17;;;;;;;23.05;9.38;;;;;;;-0.03;100.00;98207.47;4500905;31;20118;-72
2021/12/11 08:00:45;;;;;;;17.70;7.95;;;;;;;0.08;100.00;98206.84;4498171;31;20432;-72
2021/12/11 08:03:14;;;;;;;21.17;7.57;;;;;;;0.04;100.00;98215.66;4498196;31;20108;-72
2021/12/11 08:05:45;;;;;;;16.12;6.87;;;;;;;0.07;100.00;98218.06;4497275;31;20104;-72
2021/12/11 08:08:12;;;;;;;20.40;7.55;;;;;;;0.09;100.00;98213.69;4500999;31;20134;-72
2021/12/11 08:10:43;;;;;;;21.67;9.77;;;;;;;0.21;100.00;98214.72;4501321;31;20088;-72
2021/12/11 08:13:11;;;;;;;17.15;8.80;;;;;;;0.15;100.00;98215.06;4500574;31;20404;-72
2021/12/11 08:15:39;;;;;;;19.33;9.52;;;;;;;0.10;100.00;98222.22;4500021;31;20099;-72
2021/12/11 08:18:09;;;;;;;20.73;8.50;;;;;;;0.13;100.00;98230.59;4501065;31;20118;-72
2021/12/11 08:20:39;;;;;;;20.00;8.82;;;;;;;0.32;100.00;98227.03;4492742;31;20097;-72
2021/12/11 08:23:08;;;;;;;19.08;9.02;;;;;;;0.29;100.00;98229.78;4490640;31;20570;-72
2021/12/11 08:25:37;;;;;;;22.42;7.95;;;;;;;0.19;100.00;98233.78;4492635;31;20445;-72
2021/12/11 08:28:05;;;;;;;17.98;7.35;;;;;;;0.31;100.00;98230.50;4499218;31;21510;-72
2021/12/11 08:30:35;;;;;;;15.13;6.68;;;;;;;0.15;100.00;98225.37;4494431;31;20100;-72
2021/12/11 08:33:03;;;;;;;18.02;8.25;;;;;;;0.15;100.00;98231.38;4499522;31;20092;-72
2021/12/11 08:35:31;;;;;;;16.05;6.35;;;;;;;0.15;100.00;98235.66;4498568;31;20096;-72
2021/12/11 08:37:58;;;;;;;14.60;5.90;;;;;;;0.02;100.00;98242.44;4494713;31;20100;-72
2021/12/11 08:40:28;;;;;;;16.65;7.03;;;;;;;0.14;100.00;98234.84;4496792;31;20126;-72
2021/12/11 08:42:56;;;;;;;13.23;5.47;;;;;;;0.28;100.00;98238.41;4494801;31;20107;-72
2021/12/11 08:45:43;;;;;;;11.30;5.68;;;;;;;0.30;100.00;98244.28;4500519;31;20092;-72
2021/12/11 08:48:16;;;;;;;15.35;6.45;;;;;;;0.20;100.00;98240.56;4501223;31;20757;-72
2021/12/11 08:50:47;;;;;;;14.45;6.20;;;;;;;0.10;100.00;98243.66;4499935;31;20108;-72
2021/12/11 08:53:15;;;;;;;13.27;5.40;;;;;;;0.10;100.00;98243.66;4494330;31;20076;-72
2021/12/11 08:55:47;;;;;;;10.05;4.65;;;;;;;0.14;100.00;98250.31;4497403;31;20095;-72
2021/12/11 08:58:17;;;;;;;12.43;5.50;;;;;;;0.06;100.00;98252.47;4485049;31;20111;-72
2021/12/11 09:00:55;;;;;;;10.50;5.00;;;;;;;0.08;100.00;98257.56;4491096;31;20088;-72
2021/12/11 09:03:32;;;;;;;10.90;4.78;;;;;;;0.00;100.00;98252.81;4500405;31;20096;-72
2021/12/11 09:06:05;;;;;;;12.35;4.80;;;;;;;0.14;100.00;98260.59;4488419;31;20111;-72
2021/12/11 09:08:59;;;;;;;11.93;4.90;;;;;;;0.24;100.00;98266.06;4489544;31;20119;-72
2021/12/11 09:11:44;;;;;;;8.52;4.68;;;;;;;0.39;99.60;98269.53;4497942;31;20096;-72
2021/12/11 09:14:45;;;;;;;8.55;4.35;;;;;;;0.24;99.96;98272.97;4488400;31;20110;-72
2021/12/11 09:17:22;;;;;;;8.38;3.85;;;;;;;0.27;99.28;98267.66;4489682;31;20123;-72
2021/12/11 09:19:55;;;;;;;9.55;4.87;;;;;;;0.34;98.92;98271.56;4486687;31;20131;-72
2021/12/11 09:22:28;;;;;;;7.47;3.90;;;;;;;0.34;99.24;98282.69;4497615;31;20095;-72
2021/12/11 09:24:57;;;;;;;6.18;3.83;;;;;;;0.49;99.03;98295.66;4486984;31;20150;-72
2021/12/11 09:27:30;;;;;;;8.90;4.10;;;;;;;0.60;98.11;98293.28;4500255;31;20096;-72
2021/12/11 09:30:06;;;;;;;11.45;4.93;;;;;;;0.60;97.75;98297.62;4500334;31;20103;-72
2021/12/11 09:32:39;;;;;;;7.45;3.83;;;;;;;0.63;96.71;98297.44;4499649;31;20084;-72
2021/12/11 09:35:10;;;;;;;8.07;4.18;;;;;;;0.71;96.39;98297.84;4496537;31;20092;-72
2021/12/11 09:37:38;;;;;;;9.57;4.68;;;;;;;0.48;96.88;98307.69;4500244;31;20440;-72
2021/12/11 09:40:39;;;;;;;8.82;4.10;;;;;;;0.56;96.97;98301.28;4499427;31;20108;-72
2021/12/11 09:43:06;;;;;;;7.22;3.62;;;;;;;0.64;97.75;98307.66;4496487;31;20159;-72
2021/12/11 09:45:43;;;;;;;10.73;4.75;;;;;;;0.74;96.61;98320.84;4499629;31;20118;-72
2021/12/11 09:48:17;;;;;;;7.78;3.80;;;;;;;0.76;97.22;98318.19;4497405;31;77917;-72
2021/12/11 09:50:54;;;;;;;10.30;4.90;;;;;;;0.63;96.39;98313.72;4500539;31;20092;-72
2021/12/11 09:53:26;;;;;;;9.60;5.15;;;;;;;0.70;96.21;98309.09;4492956;31;20552;-72
2021/12/11 09:55:55;;;;;;;7.85;4.00;;;;;;;0.76;96.46;98293.25;4492270;31;20088;-72
2021/12/11 09:58:27;;;;;;;9.68;4.32;;;;;;;0.78;96.44;98303.50;4494008;31;20103;-72
2021/12/11 10:01:11;;;;;;;10.52;5.20;;;;;;;0.72;97.19;98301.25;4497235;31;20544;-72
2021/12/11 10:03:46;;;;;;;9.40;4.78;;;;;;;0.77;96.94;98292.31;4497233;31;20092;-72
2021/12/11 10:06:37;;;;;;;11.50;5.37;;;;;;;0.86;97.01;98288.41;4491951;31;20115;-72
2021/12/11 10:09:18;;;;;;;8.82;4.43;;;;;;;0.72;97.30;98291.75;4497995;31;20100;-72
2021/12/11 10:11:58;;;;;;;11.82;5.37;;;;;;;0.63;97.19;98293.13;4499914;31;20683;-72
2021/12/11 10:14:35;;;;;;;9.02;4.85;;;;;;;0.68;97.14;98282.53;4492998;31;20104;-72
2021/12/11 10:17:08;;;;;;;10.63;4.47;;;;;;;0.96;96.57;98281.78;4492866;31;20548;-72
2021/12/11 10:19:37;;;;;;;11.23;4.70;;;;;;;0.84;96.28;98288.47;4495190;31;20426;-72
2021/12/11 10:22:17;;;;;;;7.68;3.87;;;;;;;0.78;96.84;98281.09;4496608;31;20104;-72
2021/12/11 10:24:45;;;;;;;9.02;4.05;;;;;;;0.60;96.37;98277.81;4486268;31;20108;-72
2021/12/11 10:27:19;;;;;;;8.45;4.28;;;;;;;0.34;97.95;98282.69;4490711;31;20543;-72
2021/12/11 10:29:47;;;;;;;8.07;4.12;;;;;;;0.48;97.83;98281.91;4499086;31;20139;-72
2021/12/11 10:32:18;;;;;;;18.75;7.07;;;;;;;0.49;97.39;98285.34;4494955;31;20174;-72
2021/12/11 10:34:48;;;;;;;17.37;8.00;;;;;;;0.64;97.13;98288.81;4499129;31;20096;-72
2021/12/11 10:37:22;;;;;;;16.83;6.72;;;;;;;0.73;97.88;98298.59;4493302;31;20100;-72
2021/12/11 10:39:52;;;;;;;13.52;5.80;;;;;;;0.78;98.23;98306.88;4486841;31;20096;-73
2021/12/11 10:42:20;;;;;;;10.45;4.95;;;;;;;0.92;98.01;98303.50;4484024;31;20101;-72
2021/12/11 10:44:50;;;;;;;13.55;6.00;;;;;;;0.99;97.31;98299.66;4486098;31;20379;-72
2021/12/11 10:47:31;;;;;;;15.88;5.82;;;;;;;1.02;96.49;98302.06;4499114;31;20080;-72
2021/12/11 10:50:30;;;;;;;8.60;4.10;;;;;;;0.93;96.10;98306.94;4498443;31;20107;-72
2021/12/11 10:53:04;;;;;;;10.63;4.55;;;;;;;0.70;96.47;98294.44;4490638;31;20100;-72
2021/12/11 10:55:32;;;;;;;9.60;4.80;;;;;;;0.72;97.35;98299.50;4501440;31;20178;-72
2021/12/11 10:58:04;;;;;;;11.00;5.40;;;;;;;0.81;96.70;98288.66;4501600;31;20119;-72
2021/12/11 11:00:38;;;;;;;11.18;5.03;;;;;;;0.80;96.81;98294.75;4493609;31;20114;-72
2021/12/11 11:03:06;;;;;;;11.98;5.18;;;;;;;0.76;97.23;98293.25;4495021;31;20107;-72
2021/12/11 11:05:36;;;;;;;10.38;4.95;;;;;;;0.86;97.50;98288.41;4492116;31;20446;-72
2021/12/11 11:08:09;;;;;;;10.80;5.07;;;;;;;0.90;96.71;98287.31;4494755;31;20130;-72
2021/12/11 11:10:42;;;;;;;8.52;3.90;;;;;;;0.90;96.68;98283.91;4500022;31;20100;-72
2021/12/11 11:13:12;;;;;;;9.95;4.60;;;;;;;0.93;96.36;98281.16;4500277;31;20122;-72
2021/12/11 11:15:40;;;;;;;10.40;4.68;;;;;;;0.82;96.78;98277.44;4499769;31;20096;-72
2021/12/11 11:18:10;;;;;;;10.77;5.12;;;;;;;0.74;96.49;98284.75;4500661;31;20114;-72
2021/12/11 11:20:44;;;;;;;10.05;4.53;;;;;;;0.80;96.79;98289.59;4501061;31;20421;-72
2021/12/11 11:23:11;;;;;;;10.83;5.47;;;;;;;0.80;96.61;98287.03;4501212;31;20104;-72
2021/12/11 11:25:41;;;;;;;10.95;5.28;;;;;;;0.97;96.00;98287.78;4491741;31;20202;-72
2021/12/11 11:28:12;;;;;;;11.70;5.55;;;;;;;0.99;96.44;98288.53;4488267;31;20118;-72
2021/12/11 11:30:44;;;;;;;13.70;6.10;;;;;;;1.10;95.91;98286.16;4501490;31;20099;-72
2021/12/11 11:33:13;;;;;;;15.10;6.65;;;;;;;1.20;96.00;98286.47;4501306;31;20579;-72
2021/12/11 11:35:43;;;;;;;16.25;6.68;;;;;;;1.15;95.35;98273.81;4500718;31;20471;-72
2021/12/11 11:38:15;;;;;;;13.10;5.57;;;;;;;1.21;95.24;98277.78;4491194;31;20083;-72
2021/12/11 11:40:45;;;;;;;14.25;6.78;;;;;;;1.12;95.30;98283.47;4498938;31;20389;-72
2021/12/11 11:43:13;;;;;;;9.75;5.53;;;;;;;1.28;95.50;98283.44;4499641;31;20583;-72
2021/12/11 11:45:40;;;;;;;11.15;5.70;;;;;;;1.11;95.08;98280.09;4496886;31;20499;-72
2021/12/11 11:48:09;;;;;;;11.35;5.45;;;;;;;1.11;95.23;98282.66;4498025;31;20255;-72
2021/12/11 11:50:44;;;;;;;15.27;5.97;;;;;;;1.05;95.82;98289.00;4500725;31;20087;-72
2021/12/11 11:53:13;;;;;;;9.50;5.18;;;;;;;0.87;96.53;98298.63;4500441;31;20104;-72
2021/12/11 11:55:49;;;;;;;11.95;6.30;;;;;;;1.02;96.12;98309.81;4498449;31;20123;-72
2021/12/11 11:58:17;;;;;;;12.70;6.03;;;;;;;1.21;96.39;98319.91;4499684;31;20184;-72
2021/12/11 12:00:49;;;;;;;12.48;6.37;;;;;;;1.34;96.46;98319.19;4498950;31;20172;-72
2021/12/11 12:03:19;;;;;;;12.82;6.55;;;;;;;1.37;95.85;98324.16;4499803;31;20555;-72